sensor_id;sensor_type;location;lat;lon;timestamp;temperature;humidity
16388;DHT22;8303;53.446;9.988;2023-04-01T04:45:55;9.40;1.00
16388;DHT22;8303;53.446;9.988;2023-04-01T04:48:24;9.40;1.00
16388;DHT22;8303;53.446;9.988;2023-04-01T04:50:52;9.40;1.00
16388;DHT22;8303;53.446;9.988;2023-04-01T04:53:19;9.50;1.00
16388;DHT22;8303;53.446;9.988;2023-04-01T04:55:50;9.40;1.00
16388;DHT22;8303;53.446;9.988;2023-04-01T04:58:18;9.40;1.00
16388;DHT22;8303;53.446;9.988;2023-04-01T05:00:46;9.40;1.00
16388;DHT22;8303;53.446;9.988;2023-04-01T05:03:14;9.40;1.00
16388;DHT22;8303;53.446;9.988;2023-04-01T05:05:48;9.40;1.00
16388;DHT22;8303;53.446;9.988;2023-04-01T05:08:16;9.40;1.00
16388;DHT22;8303;53.446;9.988;2023-04-01T05:10:43;9.40;1.00
16388;DHT22;8303;53.446;9.988;2023-04-01T05:13:10;9.50;1.00
16388;DHT22;8303;53.446;9.988;2023-04-01T05:15:37;9.50;1.00
16388;DHT22;8303;53.446;9.988;2023-04-01T05:18:04;9.50;1.00
16388;DHT22;8303;53.446;9.988;2023-04-01T05:20:32;9.50;1.00
16388;DHT22;8303;53.446;9.988;2023-04-01T05:22:59;9.50;1.00
16388;DHT22;8303;53.446;9.988;2023-04-01T05:25:27;9.50;1.00
16388;DHT22;8303;53.446;9.988;2023-04-01T05:27:54;9.50;1.00
16388;DHT22;8303;53.446;9.988;2023-04-01T05:30:21;9.50;1.00
16388;DHT22;8303;53.446;9.988;2023-04-01T05:32:47;9.50;1.00
16388;DHT22;8303;53.446;9.988;2023-04-01T05:35:14;9.50;1.00
16388;DHT22;8303;53.446;9.988;2023-04-01T05:37:43;9.50;1.00
16388;DHT22;8303;53.446;9.988;2023-04-01T05:40:10;9.50;1.00
16388;DHT22;8303;53.446;9.988;2023-04-01T05:42:37;9.50;1.00
16388;DHT22;8303;53.446;9.988;2023-04-01T05:45:05;9.50;1.00
16388;DHT22;8303;53.446;9.988;2023-04-01T05:47:32;9.50;1.00
16388;DHT22;8303;53.446;9.988;2023-04-01T05:49:58;9.50;1.00
16388;DHT22;8303;53.446;9.988;2023-04-01T05:52:25;9.50;1.00
16388;DHT22;8303;53.446;9.988;2023-04-01T05:54:54;9.50;1.00
16388;DHT22;8303;53.446;9.988;2023-04-01T05:57:20;9.50;1.00
16388;DHT22;8303;53.446;9.988;2023-04-01T05:59:47;9.60;99.90
16388;DHT22;8303;53.446;9.988;2023-04-01T06:02:17;9.60;99.90
16388;DHT22;8303;53.446;9.988;2023-04-01T06:04:45;9.60;99.90
16388;DHT22;8303;53.446;9.988;2023-04-01T06:07:12;9.60;99.90
16388;DHT22;8303;53.446;9.988;2023-04-01T06:09:40;9.60;99.90
16388;DHT22;8303;53.446;9.988;2023-04-01T06:12:32;9.60;99.90
16388;DHT22;8303;53.446;9.988;2023-04-01T06:15:17;9.60;99.90
16388;DHT22;8303;53.446;9.988;2023-04-01T06:17:58;9.60;99.90
16388;DHT22;8303;53.446;9.988;2023-04-01T06:20:34;9.60;99.90
16388;DHT22;8303;53.446;9.988;2023-04-01T06:23:14;9.70;1.00
16388;DHT22;8303;53.446;9.988;2023-04-01T06:26:03;9.70;1.00
16388;DHT22;8303;53.446;9.988;2023-04-01T06:31:54;9.40;99.90
16388;DHT22;8303;53.446;9.988;2023-04-01T06:34:42;9.00;99.90
16388;DHT22;8303;53.446;9.988;2023-04-01T06:37:27;8.70;99.90
16388;DHT22;8303;53.446;9.988;2023-04-01T06:40:35;8.70;99.90
16388;DHT22;8303;53.446;9.988;2023-04-01T06:43:13;8.60;99.90
16388;DHT22;8303;53.446;9.988;2023-04-01T06:45:46;8.50;99.90
16388;DHT22;8303;53.446;9.988;2023-04-01T06:48:43;8.40;99.90
16388;DHT22;8303;53.446;9.988;2023-04-01T06:51:20;8.30;99.90
16388;DHT22;8303;53.446;9.988;2023-04-01T06:53:54;8.20;99.90
16388;DHT22;8303;53.446;9.988;2023-04-01T06:56:26;8.10;99.90
16388;DHT22;8303;53.446;9.988;2023-04-01T06:58:56;8.10;99.90
16388;DHT22;8303;53.446;9.988;2023-04-01T07:01:29;8.00;99.90
16388;DHT22;8303;53.446;9.988;2023-04-01T07:04:01;8.00;99.90
16388;DHT22;8303;53.446;9.988;2023-04-01T07:06:32;8.00;99.90
16388;DHT22;8303;53.446;9.988;2023-04-01T07:09:05;7.90;99.90
16388;DHT22;8303;53.446;9.988;2023-04-01T07:11:35;7.80;99.90
16388;DHT22;8303;53.446;9.988;2023-04-01T07:14:09;7.80;99.90
16388;DHT22;8303;53.446;9.988;2023-04-01T07:16:43;7.80;99.90
16388;DHT22;8303;53.446;9.988;2023-04-01T07:19:17;7.80;99.90
16388;DHT22;8303;53.446;9.988;2023-04-01T07:21:47;7.70;99.90
16388;DHT22;8303;53.446;9.988;2023-04-01T07:24:21;7.70;99.90
16388;DHT22;8303;53.446;9.988;2023-04-01T07:26:53;7.60;99.90
16388;DHT22;8303;53.446;9.988;2023-04-01T07:29:20;7.60;99.90
16388;DHT22;8303;53.446;9.988;2023-04-01T07:32:09;7.60;99.90
16388;DHT22;8303;53.446;9.988;2023-04-01T07:34:49;7.40;99.90
16388;DHT22;8303;53.446;9.988;2023-04-01T07:37:22;7.40;99.90
16388;DHT22;8303;53.446;9.988;2023-04-01T07:39:57;7.40;99.90
16388;DHT22;8303;53.446;9.988;2023-04-01T07:42:37;7.30;99.90
16388;DHT22;8303;53.446;9.988;2023-04-01T07:45:14;7.20;99.90
16388;DHT22;8303;53.446;9.988;2023-04-01T07:48:04;7.20;99.90
16388;DHT22;8303;53.446;9.988;2023-04-01T07:50:38;7.30;99.90
16388;DHT22;8303;53.446;9.988;2023-04-01T07:53:15;7.30;99.90
16388;DHT22;8303;53.446;9.988;2023-04-01T07:55:47;7.30;99.90
16388;DHT22;8303;53.446;9.988;2023-04-01T07:58:21;7.20;99.90
16388;DHT22;8303;53.446;9.988;2023-04-01T08:00:57;7.10;99.90
16388;DHT22;8303;53.446;9.988;2023-04-01T08:03:36;7.10;99.90
16388;DHT22;8303;53.446;9.988;2023-04-01T08:06:10;7.10;99.90
16388;DHT22;8303;53.446;9.988;2023-04-01T08:08:46;7.10;99.90
16388;DHT22;8303;53.446;9.988;2023-04-01T08:11:27;7.00;99.90
16388;DHT22;8303;53.446;9.988;2023-04-01T08:14:05;7.00;99.90
16388;DHT22;8303;53.446;9.988;2023-04-01T08:16:38;7.00;99.90
16388;DHT22;8303;53.446;9.988;2023-04-01T08:19:23;7.10;99.90
16388;DHT22;8303;53.446;9.988;2023-04-01T08:21:58;7.10;98.60
16388;DHT22;8303;53.446;9.988;2023-04-01T08:24:34;7.10;86.50
16388;DHT22;8303;53.446;9.988;2023-04-01T08:27:09;7.00;48.50
16388;DHT22;8303;53.446;9.988;2023-04-01T08:29:42;7.00;1.00
16388;DHT22;8303;53.446;9.988;2023-04-01T08:32:16;7.00;1.00
16388;DHT22;8303;53.446;9.988;2023-04-01T08:34:53;7.00;1.00
16388;DHT22;8303;53.446;9.988;2023-04-01T08:37:25;7.00;1.00
16388;DHT22;8303;53.446;9.988;2023-04-01T08:39:58;7.00;1.00
16388;DHT22;8303;53.446;9.988;2023-04-01T08:42:51;6.90;1.00
16388;DHT22;8303;53.446;9.988;2023-04-01T08:45:33;6.80;1.00
16388;DHT22;8303;53.446;9.988;2023-04-01T08:48:42;6.80;1.00
16388;DHT22;8303;53.446;9.988;2023-04-01T08:54:44;6.90;1.00
16388;DHT22;8303;53.446;9.988;2023-04-01T08:57:18;6.80;1.00
16388;DHT22;8303;53.446;9.988;2023-04-01T08:59:57;6.90;1.00
16388;DHT22;8303;53.446;9.988;2023-04-01T09:02:50;7.00;1.00
16388;DHT22;8303;53.446;9.988;2023-04-01T09:08:18;6.90;1.00
16388;DHT22;8303;53.446;9.988;2023-04-01T09:11:06;6.80;1.00
16388;DHT22;8303;53.446;9.988;2023-04-01T09:13:49;6.80;1.00
16388;DHT22;8303;53.446;9.988;2023-04-01T09:16:28;6.90;1.00
16388;DHT22;8303;53.446;9.988;2023-04-01T09:19:24;6.90;1.00
16388;DHT22;8303;53.446;9.988;2023-04-01T09:22:13;6.80;1.00
16388;DHT22;8303;53.446;9.988;2023-04-01T09:25:06;6.90;1.00
16388;DHT22;8303;53.446;9.988;2023-04-01T09:27:45;6.90;1.00
16388;DHT22;8303;53.446;9.988;2023-04-01T09:30:33;6.80;1.00
16388;DHT22;8303;53.446;9.988;2023-04-01T09:36:07;6.90;1.00
16388;DHT22;8303;53.446;9.988;2023-04-01T09:38:52;6.90;1.00
16388;DHT22;8303;53.446;9.988;2023-04-01T09:41:29;6.90;99.90
16388;DHT22;8303;53.446;9.988;2023-04-01T09:44:04;6.90;99.90
16388;DHT22;8303;53.446;9.988;2023-04-01T09:46:49;6.90;99.90
16388;DHT22;8303;53.446;9.988;2023-04-01T09:49:43;6.90;99.90
16388;DHT22;8303;53.446;9.988;2023-04-01T09:52:28;6.90;99.90
16388;DHT22;8303;53.446;9.988;2023-04-01T09:55:14;6.90;99.90
16388;DHT22;8303;53.446;9.988;2023-04-01T09:58:09;6.90;99.90
16388;DHT22;8303;53.446;9.988;2023-04-01T10:01:11;6.90;99.90
16388;DHT22;8303;53.446;9.988;2023-04-01T10:04:14;6.90;99.90
16388;DHT22;8303;53.446;9.988;2023-04-01T10:07:03;7.00;99.90
16388;DHT22;8303;53.446;9.988;2023-04-01T10:10:07;6.90;99.90
16388;DHT22;8303;53.446;9.988;2023-04-01T10:13:18;7.00;99.90
16388;DHT22;8303;53.446;9.988;2023-04-01T10:16:21;7.00;99.90
16388;DHT22;8303;53.446;9.988;2023-04-01T10:19:26;7.10;99.90
16388;DHT22;8303;53.446;9.988;2023-04-01T10:22:30;7.20;99.90
16388;DHT22;8303;53.446;9.988;2023-04-01T10:25:16;7.10;99.90
16388;DHT22;8303;53.446;9.988;2023-04-01T10:36:55;7.10;99.90
16388;DHT22;8303;53.446;9.988;2023-04-01T10:40:02;7.10;99.90
16388;DHT22;8303;53.446;9.988;2023-04-01T10:46:05;7.10;99.90
16388;DHT22;8303;53.446;9.988;2023-04-01T10:48:57;7.10;99.90
16388;DHT22;8303;53.446;9.988;2023-04-01T10:51:50;6.90;99.90
16388;DHT22;8303;53.446;9.988;2023-04-01T10:54:40;6.90;99.90
16388;DHT22;8303;53.446;9.988;2023-04-01T10:57:21;7.00;99.90
16388;DHT22;8303;53.446;9.988;2023-04-01T11:00:18;7.10;99.90
16388;DHT22;8303;53.446;9.988;2023-04-01T11:12:45;7.00;99.90
16388;DHT22;8303;53.446;9.988;2023-04-01T11:15:37;6.90;99.90
16388;DHT22;8303;53.446;9.988;2023-04-01T11:21:49;7.10;99.90
16388;DHT22;8303;53.446;9.988;2023-04-01T11:24:39;7.10;99.90
16388;DHT22;8303;53.446;9.988;2023-04-01T11:27:28;7.00;99.90
16388;DHT22;8303;53.446;9.988;2023-04-01T11:30:14;7.00;99.90
16388;DHT22;8303;53.446;9.988;2023-04-01T11:32:52;6.90;26.00
16388;DHT22;8303;53.446;9.988;2023-04-01T11:35:30;6.90;1.00
16388;DHT22;8303;53.446;9.988;2023-04-01T11:38:07;7.00;30.80
16388;DHT22;8303;53.446;9.988;2023-04-01T11:40:47;7.10;1.00
16388;DHT22;8303;53.446;9.988;2023-04-01T11:43:23;7.10;1.00
16388;DHT22;8303;53.446;9.988;2023-04-01T11:45:58;7.10;1.00
16388;DHT22;8303;53.446;9.988;2023-04-01T11:48:36;7.10;1.00
16388;DHT22;8303;53.446;9.988;2023-04-01T11:51:24;7.10;1.00
16388;DHT22;8303;53.446;9.988;2023-04-01T11:54:03;7.30;1.00
16388;DHT22;8303;53.446;9.988;2023-04-01T11:56:44;7.30;1.00
16388;DHT22;8303;53.446;9.988;2023-04-01T11:59:41;7.20;1.00
16388;DHT22;8303;53.446;9.988;2023-04-01T12:02:20;7.20;1.00
16388;DHT22;8303;53.446;9.988;2023-04-01T12:05:20;7.00;1.00
16388;DHT22;8303;53.446;9.988;2023-04-01T12:07:58;7.00;1.00
16388;DHT22;8303;53.446;9.988;2023-04-01T12:10:37;7.00;1.00
16388;DHT22;8303;53.446;9.988;2023-04-01T12:13:12;6.90;1.00
16388;DHT22;8303;53.446;9.988;2023-04-01T12:15:58;6.90;1.00
16388;DHT22;8303;53.446;9.988;2023-04-01T12:18:34;6.80;1.00
16388;DHT22;8303;53.446;9.988;2023-04-01T12:21:14;6.80;1.00
16388;DHT22;8303;53.446;9.988;2023-04-01T12:24:10;6.90;1.00
16388;DHT22;8303;53.446;9.988;2023-04-01T12:26:55;6.90;1.00
16388;DHT22;8303;53.446;9.988;2023-04-01T12:29:44;6.80;1.00
16388;DHT22;8303;53.446;9.988;2023-04-01T12:32:25;6.80;1.00
16388;DHT22;8303;53.446;9.988;2023-04-01T12:35:15;6.80;1.00
16388;DHT22;8303;53.446;9.988;2023-04-01T12:37:55;6.90;1.00
16388;DHT22;8303;53.446;9.988;2023-04-01T12:40:46;6.80;1.00
16388;DHT22;8303;53.446;9.988;2023-04-01T12:43:28;6.80;1.00
16388;DHT22;8303;53.446;9.988;2023-04-01T12:46:05;6.80;1.00
16388;DHT22;8303;53.446;9.988;2023-04-01T12:48:56;6.80;1.00
16388;DHT22;8303;53.446;9.988;2023-04-01T12:51:53;6.70;1.00
16388;DHT22;8303;53.446;9.988;2023-04-01T12:58:06;6.90;1.00
16388;DHT22;8303;53.446;9.988;2023-04-01T13:00:47;6.70;1.00
16388;DHT22;8303;53.446;9.988;2023-04-01T13:03:30;6.60;1.00
16388;DHT22;8303;53.446;9.988;2023-04-01T13:06:18;6.60;1.00
16388;DHT22;8303;53.446;9.988;2023-04-01T13:08:52;6.60;1.00
16388;DHT22;8303;53.446;9.988;2023-04-01T13:11:24;6.50;1.00
16388;DHT22;8303;53.446;9.988;2023-04-01T13:14:18;6.50;1.00
16388;DHT22;8303;53.446;9.988;2023-04-01T13:16:53;6.50;1.00
16388;DHT22;8303;53.446;9.988;2023-04-01T13:19:25;6.50;1.00
16388;DHT22;8303;53.446;9.988;2023-04-01T13:21:58;6.50;1.00
16388;DHT22;8303;53.446;9.988;2023-04-01T13:24:36;6.50;1.00
16388;DHT22;8303;53.446;9.988;2023-04-01T13:27:11;6.50;1.00
16388;DHT22;8303;53.446;9.988;2023-04-01T13:29:44;6.50;1.00
16388;DHT22;8303;53.446;9.988;2023-04-01T13:32:29;6.50;1.00
16388;DHT22;8303;53.446;9.988;2023-04-01T13:35:10;6.50;1.00
16388;DHT22;8303;53.446;9.988;2023-04-01T13:37:57;6.40;1.00
16388;DHT22;8303;53.446;9.988;2023-04-01T13:40:40;6.50;1.00
16388;DHT22;8303;53.446;9.988;2023-04-01T13:43:14;6.40;1.00
16388;DHT22;8303;53.446;9.988;2023-04-01T13:45:55;6.40;1.00
16388;DHT22;8303;53.446;9.988;2023-04-01T13:48:32;6.30;1.00
16388;DHT22;8303;53.446;9.988;2023-04-01T13:54:19;6.40;1.00
16388;DHT22;8303;53.446;9.988;2023-04-01T13:57:01;6.40;1.00
16388;DHT22;8303;53.446;9.988;2023-04-01T14:00:03;6.30;1.00
16388;DHT22;8303;53.446;9.988;2023-04-01T14:02:50;6.40;1.00
16388;DHT22;8303;53.446;9.988;2023-04-01T14:05:42;6.40;1.00
16388;DHT22;8303;53.446;9.988;2023-04-01T14:08:20;6.30;1.00
16388;DHT22;8303;53.446;9.988;2023-04-01T14:11:03;6.20;1.00
16388;DHT22;8303;53.446;9.988;2023-04-01T14:13:39;6.20;1.00
16388;DHT22;8303;53.446;9.988;2023-04-01T14:16:25;6.20;1.00
16388;DHT22;8303;53.446;9.988;2023-04-01T14:19:12;6.20;1.00
16388;DHT22;8303;53.446;9.988;2023-04-01T14:21:52;6.20;1.00
16388;DHT22;8303;53.446;9.988;2023-04-01T14:24:36;6.30;1.00
16388;DHT22;8303;53.446;9.988;2023-04-01T14:27:42;6.30;1.00
16388;DHT22;8303;53.446;9.988;2023-04-01T14:30:30;6.30;1.00
16388;DHT22;8303;53.446;9.988;2023-04-01T14:33:10;6.30;1.00
16388;DHT22;8303;53.446;9.988;2023-04-01T14:35:41;6.10;1.00
16388;DHT22;8303;53.446;9.988;2023-04-01T14:38:29;6.10;1.00
16388;DHT22;8303;53.446;9.988;2023-04-01T14:41:06;6.10;1.00
16388;DHT22;8303;53.446;9.988;2023-04-01T14:43:52;6.10;1.00
16388;DHT22;8303;53.446;9.988;2023-04-01T14:46:44;6.00;1.00
16388;DHT22;8303;53.446;9.988;2023-04-01T14:49:20;5.90;1.00
16388;DHT22;8303;53.446;9.988;2023-04-01T14:51:49;5.90;1.00
16388;DHT22;8303;53.446;9.988;2023-04-01T14:54:20;5.90;1.00
16388;DHT22;8303;53.446;9.988;2023-04-01T14:56:50;6.00;1.00
16388;DHT22;8303;53.446;9.988;2023-04-01T14:59:28;6.00;1.00
16388;DHT22;8303;53.446;9.988;2023-04-01T15:02:01;6.00;1.00
16388;DHT22;8303;53.446;9.988;2023-04-01T15:04:49;6.00;1.00
16388;DHT22;8303;53.446;9.988;2023-04-01T15:07:31;5.90;1.00
16388;DHT22;8303;53.446;9.988;2023-04-01T15:10:09;5.90;1.00
16388;DHT22;8303;53.446;9.988;2023-04-01T15:12:54;5.80;1.00
16388;DHT22;8303;53.446;9.988;2023-04-01T15:15:44;5.70;1.00
16388;DHT22;8303;53.446;9.988;2023-04-01T15:18:18;5.80;1.00
16388;DHT22;8303;53.446;9.988;2023-04-01T15:21:01;5.80;1.00
16388;DHT22;8303;53.446;9.988;2023-04-01T15:23:43;5.80;1.00
16388;DHT22;8303;53.446;9.988;2023-04-01T15:26:26;5.80;1.00
16388;DHT22;8303;53.446;9.988;2023-04-01T15:29:08;5.80;1.00
16388;DHT22;8303;53.446;9.988;2023-04-01T15:31:46;5.70;1.00
16388;DHT22;8303;53.446;9.988;2023-04-01T15:34:26;5.60;1.00
16388;DHT22;8303;53.446;9.988;2023-04-01T15:36:59;5.60;1.00
16388;DHT22;8303;53.446;9.988;2023-04-01T15:39:42;5.60;1.00
16388;DHT22;8303;53.446;9.988;2023-04-01T15:42:22;5.60;1.00
16388;DHT22;8303;53.446;9.988;2023-04-01T15:45:01;5.60;1.00
16388;DHT22;8303;53.446;9.988;2023-04-01T15:47:42;5.70;1.00
16388;DHT22;8303;53.446;9.988;2023-04-01T15:50:53;5.60;1.00
16388;DHT22;8303;53.446;9.988;2023-04-01T15:53:42;5.70;1.00
16388;DHT22;8303;53.446;9.988;2023-04-01T15:56:19;5.70;1.00
16388;DHT22;8303;53.446;9.988;2023-04-01T15:58:59;5.60;1.00
16388;DHT22;8303;53.446;9.988;2023-04-01T16:01:36;5.50;1.00
16388;DHT22;8303;53.446;9.988;2023-04-01T16:04:24;5.50;1.00
16388;DHT22;8303;53.446;9.988;2023-04-01T16:07:04;5.50;1.00
16388;DHT22;8303;53.446;9.988;2023-04-01T16:09:43;5.50;1.00
16388;DHT22;8303;53.446;9.988;2023-04-01T16:12:17;5.40;1.00
16388;DHT22;8303;53.446;9.988;2023-04-01T16:14:57;5.40;1.00
16388;DHT22;8303;53.446;9.988;2023-04-01T16:17:44;5.30;1.00
16388;DHT22;8303;53.446;9.988;2023-04-01T16:20:19;5.30;1.00
16388;DHT22;8303;53.446;9.988;2023-04-01T16:22:53;5.30;1.00
16388;DHT22;8303;53.446;9.988;2023-04-01T16:25:31;5.30;1.00
16388;DHT22;8303;53.446;9.988;2023-04-01T16:28:14;5.20;1.00
16388;DHT22;8303;53.446;9.988;2023-04-01T16:30:47;5.20;1.00
16388;DHT22;8303;53.446;9.988;2023-04-01T16:33:22;5.10;1.00
16388;DHT22;8303;53.446;9.988;2023-04-01T16:35:57;5.10;1.00
16388;DHT22;8303;53.446;9.988;2023-04-01T16:38:32;5.10;1.00
16388;DHT22;8303;53.446;9.988;2023-04-01T16:41:10;5.20;1.00
16388;DHT22;8303;53.446;9.988;2023-04-01T16:43:41;5.10;1.00
16388;DHT22;8303;53.446;9.988;2023-04-01T16:46:33;5.20;1.00
16388;DHT22;8303;53.446;9.988;2023-04-01T16:49:13;5.10;1.00
16388;DHT22;8303;53.446;9.988;2023-04-01T16:51:48;5.10;1.00
16388;DHT22;8303;53.446;9.988;2023-04-01T16:54:28;5.00;1.00
16388;DHT22;8303;53.446;9.988;2023-04-01T16:57:02;4.90;1.00
16388;DHT22;8303;53.446;9.988;2023-04-01T16:59:35;4.90;1.00
16388;DHT22;8303;53.446;9.988;2023-04-01T17:02:08;4.90;1.00
16388;DHT22;8303;53.446;9.988;2023-04-01T17:04:40;5.00;1.00
16388;DHT22;8303;53.446;9.988;2023-04-01T17:07:22;4.90;1.00
16388;DHT22;8303;53.446;9.988;2023-04-01T17:10:10;4.90;1.00
16388;DHT22;8303;53.446;9.988;2023-04-01T17:12:46;4.90;1.00
16388;DHT22;8303;53.446;9.988;2023-04-01T17:15:21;4.90;1.00
16388;DHT22;8303;53.446;9.988;2023-04-01T17:17:58;4.80;1.00
16388;DHT22;8303;53.446;9.988;2023-04-01T17:20:32;4.80;1.00
16388;DHT22;8303;53.446;9.988;2023-04-01T17:23:14;4.80;1.00
16388;DHT22;8303;53.446;9.988;2023-04-01T17:25:52;4.80;1.00
16388;DHT22;8303;53.446;9.988;2023-04-01T17:28:33;4.70;1.00
16388;DHT22;8303;53.446;9.988;2023-04-01T17:31:07;4.70;1.00
16388;DHT22;8303;53.446;9.988;2023-04-01T17:33:54;4.60;1.00
16388;DHT22;8303;53.446;9.988;2023-04-01T17:36:36;4.60;1.00
16388;DHT22;8303;53.446;9.988;2023-04-01T17:39:26;4.60;1.00
16388;DHT22;8303;53.446;9.988;2023-04-01T17:42:04;4.60;1.00
16388;DHT22;8303;53.446;9.988;2023-04-01T17:44:44;4.60;1.00
16388;DHT22;8303;53.446;9.988;2023-04-01T17:47:32;4.60;1.00
16388;DHT22;8303;53.446;9.988;2023-04-01T17:50:14;4.60;1.00
16388;DHT22;8303;53.446;9.988;2023-04-01T17:52:47;4.50;1.00
16388;DHT22;8303;53.446;9.988;2023-04-01T17:55:43;4.50;1.00
16388;DHT22;8303;53.446;9.988;2023-04-01T17:58:19;4.50;1.00
16388;DHT22;8303;53.446;9.988;2023-04-01T18:01:04;4.50;1.00
16388;DHT22;8303;53.446;9.988;2023-04-01T18:04:02;4.40;1.00
16388;DHT22;8303;53.446;9.988;2023-04-01T18:06:36;4.40;1.00
16388;DHT22;8303;53.446;9.988;2023-04-01T18:09:18;4.40;1.00
16388;DHT22;8303;53.446;9.988;2023-04-01T18:11:57;4.40;1.00
16388;DHT22;8303;53.446;9.988;2023-04-01T18:14:42;4.40;1.00
16388;DHT22;8303;53.446;9.988;2023-04-01T18:17:21;4.40;1.00
16388;DHT22;8303;53.446;9.988;2023-04-01T18:20:02;4.40;1.00
16388;DHT22;8303;53.446;9.988;2023-04-01T18:22:38;4.40;1.00
16388;DHT22;8303;53.446;9.988;2023-04-01T18:25:15;4.40;1.00
16388;DHT22;8303;53.446;9.988;2023-04-01T18:27:47;4.40;1.00
16388;DHT22;8303;53.446;9.988;2023-04-01T18:30:17;4.40;1.00
16388;DHT22;8303;53.446;9.988;2023-04-01T18:32:50;4.30;1.00
16388;DHT22;8303;53.446;9.988;2023-04-01T18:35:24;4.40;1.00
16388;DHT22;8303;53.446;9.988;2023-04-01T18:37:55;4.40;1.00
16388;DHT22;8303;53.446;9.988;2023-04-01T18:40:29;4.40;1.00
16388;DHT22;8303;53.446;9.988;2023-04-01T18:43:08;4.40;1.00
16388;DHT22;8303;53.446;9.988;2023-04-01T18:45:38;4.40;1.00
16388;DHT22;8303;53.446;9.988;2023-04-01T18:48:16;4.40;1.00
16388;DHT22;8303;53.446;9.988;2023-04-01T18:50:48;4.40;1.00
16388;DHT22;8303;53.446;9.988;2023-04-01T18:53:23;4.40;1.00
16388;DHT22;8303;53.446;9.988;2023-04-01T18:55:55;4.40;99.90
16388;DHT22;8303;53.446;9.988;2023-04-01T18:58:29;4.30;99.90
16388;DHT22;8303;53.446;9.988;2023-04-01T19:01:15;4.20;99.90
16388;DHT22;8303;53.446;9.988;2023-04-01T19:03:52;4.10;99.90
16388;DHT22;8303;53.446;9.988;2023-04-01T19:06:26;4.10;99.90
16388;DHT22;8303;53.446;9.988;2023-04-01T19:08:55;4.10;99.90
16388;DHT22;8303;53.446;9.988;2023-04-01T19:11:33;4.10;99.90
16388;DHT22;8303;53.446;9.988;2023-04-01T19:14:12;4.10;99.90
16388;DHT22;8303;53.446;9.988;2023-04-01T19:16:49;4.00;99.90
16388;DHT22;8303;53.446;9.988;2023-04-01T19:19:29;4.10;99.90
16388;DHT22;8303;53.446;9.988;2023-04-01T19:22:09;4.00;99.90
16388;DHT22;8303;53.446;9.988;2023-04-01T19:27:35;3.90;99.90
16388;DHT22;8303;53.446;9.988;2023-04-01T19:30:30;3.90;99.90
16388;DHT22;8303;53.446;9.988;2023-04-01T19:33:07;3.80;99.90
16388;DHT22;8303;53.446;9.988;2023-04-01T19:35:42;3.80;99.90
16388;DHT22;8303;53.446;9.988;2023-04-01T19:38:15;3.80;99.90
16388;DHT22;8303;53.446;9.988;2023-04-01T19:40:54;3.80;99.90
16388;DHT22;8303;53.446;9.988;2023-04-01T19:43:47;3.80;99.90
16388;DHT22;8303;53.446;9.988;2023-04-01T19:46:25;3.80;99.90
16388;DHT22;8303;53.446;9.988;2023-04-01T19:49:09;3.80;99.90
16388;DHT22;8303;53.446;9.988;2023-04-01T19:51:45;3.70;99.90
16388;DHT22;8303;53.446;9.988;2023-04-01T19:54:24;3.70;99.90
16388;DHT22;8303;53.446;9.988;2023-04-01T19:57:00;3.70;99.90
16388;DHT22;8303;53.446;9.988;2023-04-01T19:59:33;3.70;99.90
16388;DHT22;8303;53.446;9.988;2023-04-01T20:05:24;3.60;99.90
16388;DHT22;8303;53.446;9.988;2023-04-01T20:07:58;3.50;99.90
16388;DHT22;8303;53.446;9.988;2023-04-01T20:10:32;3.50;99.90
16388;DHT22;8303;53.446;9.988;2023-04-01T20:13:08;3.50;99.00
16388;DHT22;8303;53.446;9.988;2023-04-01T20:15:41;3.40;79.60
16388;DHT22;8303;53.446;9.988;2023-04-01T20:18:16;3.40;21.70
16388;DHT22;8303;53.446;9.988;2023-04-01T20:20:54;3.30;1.10
16388;DHT22;8303;53.446;9.988;2023-04-01T20:23:33;3.20;9.30
16388;DHT22;8303;53.446;9.988;2023-04-01T20:26:04;3.10;1.00
16388;DHT22;8303;53.446;9.988;2023-04-01T20:28:42;3.00;1.00
